sensor_id;sensor_type;location;lat;lon;timestamp;pressure;altitude;pressure_sealevel;temperature;humidity
78990;BME280;68390;52.130;21.218;2023-07-20T00:00:24;99744.81;;;15.49;69.07
78990;BME280;68390;52.130;21.218;2023-07-20T00:02:50;99743.78;;;15.43;69.65
78990;BME280;68390;52.130;21.218;2023-07-20T00:05:16;99735.28;;;15.38;69.97
78990;BME280;68390;52.130;21.218;2023-07-20T00:07:47;99742.97;;;15.36;69.29
78990;BME280;68390;52.130;21.218;2023-07-20T00:10:12;99732.34;;;15.33;69.98
78990;BME280;68390;52.130;21.218;2023-07-20T00:12:38;99738.09;;;15.32;70.22
78990;BME280;68390;52.130;21.218;2023-07-20T00:15:04;99724.69;;;15.29;70.29
78990;BME280;68390;52.130;21.218;2023-07-20T00:17:29;99723.66;;;15.23;70.48
78990;BME280;68390;52.130;21.218;2023-07-20T00:19:55;99719.59;;;15.19;70.30
78990;BME280;68390;52.130;21.218;2023-07-20T00:22:20;99718.97;;;15.17;70.68
78990;BME280;68390;52.130;21.218;2023-07-20T00:24:46;99714.09;;;15.13;70.65
78990;BME280;68390;52.130;21.218;2023-07-20T00:27:11;99712.81;;;15.09;70.33
78990;BME280;68390;52.130;21.218;2023-07-20T00:29:36;99714.56;;;15.03;71.60
78990;BME280;68390;52.130;21.218;2023-07-20T00:32:02;99703.91;;;15.00;71.42
78990;BME280;68390;52.130;21.218;2023-07-20T00:34:30;99709.88;;;14.97;72.08
78990;BME280;68390;52.130;21.218;2023-07-20T00:36:55;99706.91;;;14.92;72.42
78990;BME280;68390;52.130;21.218;2023-07-20T00:39:20;99703.50;;;14.90;71.87
78990;BME280;68390;52.130;21.218;2023-07-20T00:41:46;99709.88;;;14.90;71.76
78990;BME280;68390;52.130;21.218;2023-07-20T00:44:11;99708.19;;;14.89;71.96
78990;BME280;68390;52.130;21.218;2023-07-20T00:46:37;99707.34;;;14.89;72.34
78990;BME280;68390;52.130;21.218;2023-07-20T00:49:03;99706.28;;;14.90;71.82
78990;BME280;68390;52.130;21.218;2023-07-20T00:51:28;99714.56;;;14.90;71.96
78990;BME280;68390;52.130;21.218;2023-07-20T00:53:54;99723.91;;;14.89;72.65
78990;BME280;68390;52.130;21.218;2023-07-20T00:56:19;99723.91;;;14.89;72.56
78990;BME280;68390;52.130;21.218;2023-07-20T00:58:45;99730.09;;;14.91;73.26
78990;BME280;68390;52.130;21.218;2023-07-20T01:01:11;99733.50;;;14.93;73.36
78990;BME280;68390;52.130;21.218;2023-07-20T01:03:37;99726.91;;;14.94;72.90
78990;BME280;68390;52.130;21.218;2023-07-20T01:06:25;99728.38;;;14.96;72.79
78990;BME280;68390;52.130;21.218;2023-07-20T01:09:06;99715.38;;;14.97;72.80
78990;BME280;68390;52.130;21.218;2023-07-20T01:14:15;99712.22;;;14.93;72.98
78990;BME280;68390;52.130;21.218;2023-07-20T01:16:41;99727.50;;;14.96;73.67
78990;BME280;68390;52.130;21.218;2023-07-20T01:19:07;99734.53;;;14.98;72.87
78990;BME280;68390;52.130;21.218;2023-07-20T01:21:41;99737.09;;;15.00;72.87
78990;BME280;68390;52.130;21.218;2023-07-20T01:27:04;99719.66;;;14.99;73.65
78990;BME280;68390;52.130;21.218;2023-07-20T01:32:18;99732.63;;;14.99;73.57
78990;BME280;68390;52.130;21.218;2023-07-20T01:34:45;99719.84;;;14.98;73.19
78990;BME280;68390;52.130;21.218;2023-07-20T01:37:12;99723.06;;;14.95;73.21
78990;BME280;68390;52.130;21.218;2023-07-20T01:39:38;99717.31;;;14.90;73.36
78990;BME280;68390;52.130;21.218;2023-07-20T01:42:04;99714.97;;;14.87;73.41
78990;BME280;68390;52.130;21.218;2023-07-20T01:44:29;99717.56;;;14.82;73.39
78990;BME280;68390;52.130;21.218;2023-07-20T01:46:55;99722.22;;;14.75;73.72
78990;BME280;68390;52.130;21.218;2023-07-20T01:49:20;99729.88;;;14.66;74.23
78990;BME280;68390;52.130;21.218;2023-07-20T01:51:46;99731.81;;;14.59;74.98
78990;BME280;68390;52.130;21.218;2023-07-20T01:54:11;99751.16;;;14.52;74.68
78990;BME280;68390;52.130;21.218;2023-07-20T01:56:36;99748.81;;;14.49;75.21
78990;BME280;68390;52.130;21.218;2023-07-20T01:59:02;99760.94;;;14.48;75.90
78990;BME280;68390;52.130;21.218;2023-07-20T02:01:28;99746.06;;;14.49;75.82
78990;BME280;68390;52.130;21.218;2023-07-20T02:03:54;99763.06;;;14.53;75.58
78990;BME280;68390;52.130;21.218;2023-07-20T02:06:20;99761.16;;;14.53;75.40
78990;BME280;68390;52.130;21.218;2023-07-20T02:08:45;99759.00;;;14.55;75.57
78990;BME280;68390;52.130;21.218;2023-07-20T02:11:10;99754.78;;;14.53;75.74
78990;BME280;68390;52.130;21.218;2023-07-20T02:13:36;99752.88;;;14.53;76.11
78990;BME280;68390;52.130;21.218;2023-07-20T02:16:01;99757.97;;;14.50;75.54
78990;BME280;68390;52.130;21.218;2023-07-20T02:18:26;99760.94;;;14.42;76.11
78990;BME280;68390;52.130;21.218;2023-07-20T02:20:53;99760.88;;;14.35;76.04
78990;BME280;68390;52.130;21.218;2023-07-20T02:23:19;99758.09;;;14.35;75.75
78990;BME280;68390;52.130;21.218;2023-07-20T02:25:44;99750.88;;;14.34;76.17
78990;BME280;68390;52.130;21.218;2023-07-20T02:28:13;99753.63;;;14.34;76.01
78990;BME280;68390;52.130;21.218;2023-07-20T02:30:38;99750.88;;;14.34;76.31
78990;BME280;68390;52.130;21.218;2023-07-20T02:33:04;99749.41;;;14.31;76.31
78990;BME280;68390;52.130;21.218;2023-07-20T02:35:31;99743.03;;;14.31;76.81
78990;BME280;68390;52.130;21.218;2023-07-20T02:37:57;99738.78;;;14.28;76.48
78990;BME280;68390;52.130;21.218;2023-07-20T02:40:22;99736.66;;;14.30;76.44
78990;BME280;68390;52.130;21.218;2023-07-20T02:42:48;99733.25;;;14.35;76.53
78990;BME280;68390;52.130;21.218;2023-07-20T02:45:13;99732.41;;;14.34;76.53
78990;BME280;68390;52.130;21.218;2023-07-20T02:47:38;99719.44;;;14.35;79.40
78990;BME280;68390;52.130;21.218;2023-07-20T02:50:07;99730.06;;;14.38;77.38
78990;BME280;68390;52.130;21.218;2023-07-20T02:52:33;99727.78;;;14.42;76.96
78990;BME280;68390;52.130;21.218;2023-07-20T02:54:58;99734.38;;;14.41;77.01
78990;BME280;68390;52.130;21.218;2023-07-20T02:57:23;99733.72;;;14.45;76.60
78990;BME280;68390;52.130;21.218;2023-07-20T02:59:49;99715.66;;;14.49;76.25
78990;BME280;68390;52.130;21.218;2023-07-20T03:02:14;99711.63;;;14.52;76.07
78990;BME280;68390;52.130;21.218;2023-07-20T03:04:39;99717.56;;;14.55;76.84
78990;BME280;68390;52.130;21.218;2023-07-20T03:07:05;99719.25;;;14.56;76.64
78990;BME280;68390;52.130;21.218;2023-07-20T03:09:34;99722.47;;;14.60;76.49
78990;BME280;68390;52.130;21.218;2023-07-20T03:11:59;99723.09;;;14.62;76.20
78990;BME280;68390;52.130;21.218;2023-07-20T03:14:25;99722.03;;;14.63;76.24
78990;BME280;68390;52.130;21.218;2023-07-20T03:16:50;99727.97;;;14.66;75.82
78990;BME280;68390;52.130;21.218;2023-07-20T03:19:15;99732.22;;;14.69;75.95
78990;BME280;68390;52.130;21.218;2023-07-20T03:21:41;99723.09;;;14.68;77.09
78990;BME280;68390;52.130;21.218;2023-07-20T03:24:10;99730.53;;;14.68;77.06
78990;BME280;68390;52.130;21.218;2023-07-20T03:26:36;99728.19;;;14.65;76.53
78990;BME280;68390;52.130;21.218;2023-07-20T03:29:03;99743.50;;;14.67;76.53
78990;BME280;68390;52.130;21.218;2023-07-20T03:31:29;99741.38;;;14.69;77.29
78990;BME280;68390;52.130;21.218;2023-07-20T03:33:54;99747.75;;;14.70;76.82
78990;BME280;68390;52.130;21.218;2023-07-20T03:36:20;99745.44;;;14.74;77.22
78990;BME280;68390;52.130;21.218;2023-07-20T03:38:45;99746.03;;;14.76;77.19
78990;BME280;68390;52.130;21.218;2023-07-20T03:41:11;99744.78;;;14.78;76.57
78990;BME280;68390;52.130;21.218;2023-07-20T03:43:37;99747.13;;;14.81;77.60
78990;BME280;68390;52.130;21.218;2023-07-20T03:46:02;99751.78;;;14.81;78.07
78990;BME280;68390;52.130;21.218;2023-07-20T03:48:32;99757.72;;;14.78;77.24
78990;BME280;68390;52.130;21.218;2023-07-20T03:50:58;99769.22;;;14.75;77.82
78990;BME280;68390;52.130;21.218;2023-07-20T03:53:24;99770.72;;;14.71;77.96
78990;BME280;68390;52.130;21.218;2023-07-20T03:55:51;99778.59;;;14.74;78.00
78990;BME280;68390;52.130;21.218;2023-07-20T03:58:17;99782.81;;;14.76;78.29
78990;BME280;68390;52.130;21.218;2023-07-20T04:00:49;99789.00;;;14.78;77.37
78990;BME280;68390;52.130;21.218;2023-07-20T04:03:18;99804.94;;;14.83;77.17
78990;BME280;68390;52.130;21.218;2023-07-20T04:05:44;99811.75;;;14.87;77.36
78990;BME280;68390;52.130;21.218;2023-07-20T04:08:10;99826.00;;;14.90;77.65
78990;BME280;68390;52.130;21.218;2023-07-20T04:10:36;99833.88;;;14.93;79.58
78990;BME280;68390;52.130;21.218;2023-07-20T04:13:02;99833.66;;;14.95;78.13
78990;BME280;68390;52.130;21.218;2023-07-20T04:15:27;99841.72;;;14.96;78.20
78990;BME280;68390;52.130;21.218;2023-07-20T04:17:52;99841.13;;;14.94;79.21
78990;BME280;68390;52.130;21.218;2023-07-20T04:20:18;99845.34;;;14.97;79.10
78990;BME280;68390;52.130;21.218;2023-07-20T04:22:43;99840.47;;;14.99;78.48
78990;BME280;68390;52.130;21.218;2023-07-20T04:25:09;99852.38;;;14.99;80.50
78990;BME280;68390;52.130;21.218;2023-07-20T04:27:35;99849.81;;;14.98;81.94
78990;BME280;68390;52.130;21.218;2023-07-20T04:30:01;99847.91;;;14.98;81.14
78990;BME280;68390;52.130;21.218;2023-07-20T04:32:27;99860.47;;;15.01;82.64
78990;BME280;68390;52.130;21.218;2023-07-20T04:34:53;99856.41;;;15.03;82.84
78990;BME280;68390;52.130;21.218;2023-07-20T04:37:18;99857.03;;;15.05;82.73
78990;BME280;68390;52.130;21.218;2023-07-20T04:39:44;99868.75;;;15.07;83.43
78990;BME280;68390;52.130;21.218;2023-07-20T04:42:09;99880.00;;;15.06;85.40
78990;BME280;68390;52.130;21.218;2023-07-20T04:44:34;99874.47;;;15.06;83.71
78990;BME280;68390;52.130;21.218;2023-07-20T04:47:00;99872.81;;;15.05;85.20
78990;BME280;68390;52.130;21.218;2023-07-20T04:49:25;99874.28;;;15.07;85.59
78990;BME280;68390;52.130;21.218;2023-07-20T04:51:51;99878.75;;;15.02;86.05
78990;BME280;68390;52.130;21.218;2023-07-20T04:54:16;99880.03;;;14.99;86.67
78990;BME280;68390;52.130;21.218;2023-07-20T04:56:42;99881.94;;;14.99;88.22
78990;BME280;68390;52.130;21.218;2023-07-20T04:59:07;99881.94;;;14.99;88.31
78990;BME280;68390;52.130;21.218;2023-07-20T05:01:33;99882.56;;;15.01;90.23
78990;BME280;68390;52.130;21.218;2023-07-20T05:03:58;99881.09;;;15.05;89.04
78990;BME280;68390;52.130;21.218;2023-07-20T05:06:24;99884.91;;;15.11;88.92
78990;BME280;68390;52.130;21.218;2023-07-20T05:08:49;99889.19;;;15.13;90.46
78990;BME280;68390;52.130;21.218;2023-07-20T05:11:14;99895.75;;;15.19;90.51
78990;BME280;68390;52.130;21.218;2023-07-20T05:13:40;99900.03;;;15.21;90.06
78990;BME280;68390;52.130;21.218;2023-07-20T05:16:05;99903.00;;;15.26;90.92
78990;BME280;68390;52.130;21.218;2023-07-20T05:18:30;99899.81;;;15.29;90.81
78990;BME280;68390;52.130;21.218;2023-07-20T05:20:56;99894.06;;;15.37;90.31
78990;BME280;68390;52.130;21.218;2023-07-20T05:23:21;99897.03;;;15.42;90.35
78990;BME280;68390;52.130;21.218;2023-07-20T05:25:56;99905.53;;;15.48;90.41
78990;BME280;68390;52.130;21.218;2023-07-20T05:28:23;99905.13;;;15.51;90.40
78990;BME280;68390;52.130;21.218;2023-07-20T05:30:50;99899.84;;;15.56;91.21
78990;BME280;68390;52.130;21.218;2023-07-20T05:33:17;99908.53;;;15.59;90.19
78990;BME280;68390;52.130;21.218;2023-07-20T05:35:43;99898.53;;;15.65;89.58
78990;BME280;68390;52.130;21.218;2023-07-20T05:38:08;99902.13;;;15.72;90.05
78990;BME280;68390;52.130;21.218;2023-07-20T05:40:40;99898.94;;;15.75;90.29
78990;BME280;68390;52.130;21.218;2023-07-20T05:43:05;99897.44;;;15.79;89.50
78990;BME280;68390;52.130;21.218;2023-07-20T05:45:31;99895.53;;;15.86;89.40
78990;BME280;68390;52.130;21.218;2023-07-20T05:47:56;99896.56;;;15.92;89.64
78990;BME280;68390;52.130;21.218;2023-07-20T05:50:21;99900.13;;;15.99;89.23
78990;BME280;68390;52.130;21.218;2023-07-20T05:52:47;99884.81;;;16.03;89.44
78990;BME280;68390;52.130;21.218;2023-07-20T05:55:13;99886.06;;;16.07;86.69
78990;BME280;68390;52.130;21.218;2023-07-20T05:57:38;99885.63;;;16.10;87.17
78990;BME280;68390;52.130;21.218;2023-07-20T06:00:07;99890.94;;;16.11;89.96
78990;BME280;68390;52.130;21.218;2023-07-20T06:02:33;99892.22;;;16.15;89.88
78990;BME280;68390;52.130;21.218;2023-07-20T06:04:58;99885.63;;;16.17;89.08
78990;BME280;68390;52.130;21.218;2023-07-20T06:07:24;99891.53;;;16.20;89.78
78990;BME280;68390;52.130;21.218;2023-07-20T06:09:49;99877.31;;;16.17;88.50
78990;BME280;68390;52.130;21.218;2023-07-20T06:12:15;99877.69;;;16.20;87.97
78990;BME280;68390;52.130;21.218;2023-07-20T06:14:40;99876.84;;;16.20;89.25
78990;BME280;68390;52.130;21.218;2023-07-20T06:17:05;99865.75;;;16.20;88.94
78990;BME280;68390;52.130;21.218;2023-07-20T06:19:31;99869.16;;;16.22;85.36
78990;BME280;68390;52.130;21.218;2023-07-20T06:21:56;99871.28;;;16.26;84.87
78990;BME280;68390;52.130;21.218;2023-07-20T06:24:21;99861.69;;;16.29;84.31
78990;BME280;68390;52.130;21.218;2023-07-20T06:26:47;99851.69;;;16.28;83.51
78990;BME280;68390;52.130;21.218;2023-07-20T06:29:12;99858.25;;;16.33;84.06
78990;BME280;68390;52.130;21.218;2023-07-20T06:31:37;99852.06;;;16.38;83.72
78990;BME280;68390;52.130;21.218;2023-07-20T06:34:03;99846.47;;;16.44;84.59
78990;BME280;68390;52.130;21.218;2023-07-20T06:36:28;99845.19;;;16.47;81.71
78990;BME280;68390;52.130;21.218;2023-07-20T06:38:55;99849.38;;;16.56;82.66
78990;BME280;68390;52.130;21.218;2023-07-20T06:41:20;99841.22;;;16.61;81.33
78990;BME280;68390;52.130;21.218;2023-07-20T06:43:46;99844.00;;;16.61;80.65
78990;BME280;68390;52.130;21.218;2023-07-20T06:46:12;99840.81;;;16.64;81.03
78990;BME280;68390;52.130;21.218;2023-07-20T06:48:37;99844.84;;;16.68;83.23
78990;BME280;68390;52.130;21.218;2023-07-20T06:51:03;99837.78;;;16.72;83.44
78990;BME280;68390;52.130;21.218;2023-07-20T06:53:29;99842.88;;;16.75;81.09
78990;BME280;68390;52.130;21.218;2023-07-20T06:55:54;99837.28;;;16.82;82.04
78990;BME280;68390;52.130;21.218;2023-07-20T06:58:23;99844.50;;;16.90;81.58
78990;BME280;68390;52.130;21.218;2023-07-20T07:00:48;99837.66;;;16.92;81.57
78990;BME280;68390;52.130;21.218;2023-07-20T07:03:14;99837.59;;;16.99;82.16
78990;BME280;68390;52.130;21.218;2023-07-20T07:05:39;99841.78;;;17.08;81.25
78990;BME280;68390;52.130;21.218;2023-07-20T07:08:04;99837.31;;;17.07;80.28
78990;BME280;68390;52.130;21.218;2023-07-20T07:10:30;99842.00;;;17.06;80.79
78990;BME280;68390;52.130;21.218;2023-07-20T07:12:55;99840.72;;;17.09;80.86
78990;BME280;68390;52.130;21.218;2023-07-20T07:15:21;99835.38;;;17.07;82.29
78990;BME280;68390;52.130;21.218;2023-07-20T07:17:46;99841.56;;;17.09;82.51
78990;BME280;68390;52.130;21.218;2023-07-20T07:20:11;99844.78;;;17.06;81.27
78990;BME280;68390;52.130;21.218;2023-07-20T07:22:37;99846.47;;;17.07;80.94
78990;BME280;68390;52.130;21.218;2023-07-20T07:25:03;99853.09;;;17.06;81.06
78990;BME280;68390;52.130;21.218;2023-07-20T07:27:29;99854.81;;;17.07;80.79
78990;BME280;68390;52.130;21.218;2023-07-20T07:29:54;99851.19;;;17.07;79.30
78990;BME280;68390;52.130;21.218;2023-07-20T07:32:20;99864.63;;;17.03;79.24
78990;BME280;68390;52.130;21.218;2023-07-20T07:34:45;99859.94;;;17.04;79.88
78990;BME280;68390;52.130;21.218;2023-07-20T07:37:14;99867.03;;;17.00;80.10
78990;BME280;68390;52.130;21.218;2023-07-20T07:39:39;99862.34;;;17.00;80.71
78990;BME280;68390;52.130;21.218;2023-07-20T07:42:05;99868.53;;;16.96;82.60
78990;BME280;68390;52.130;21.218;2023-07-20T07:44:31;99879.41;;;16.97;82.79
78990;BME280;68390;52.130;21.218;2023-07-20T07:46:56;99873.47;;;16.94;82.00
78990;BME280;68390;52.130;21.218;2023-07-20T07:49:22;99871.38;;;16.89;81.86
78990;BME280;68390;52.130;21.218;2023-07-20T07:51:47;99881.63;;;16.88;82.45
78990;BME280;68390;52.130;21.218;2023-07-20T07:54:13;99874.38;;;16.87;80.94
78990;BME280;68390;52.130;21.218;2023-07-20T07:56:39;99877.38;;;16.86;81.15
78990;BME280;68390;52.130;21.218;2023-07-20T07:59:04;99881.22;;;16.85;82.24
78990;BME280;68390;52.130;21.218;2023-07-20T08:01:29;99870.16;;;16.78;80.12
78990;BME280;68390;52.130;21.218;2023-07-20T08:03:55;99879.13;;;16.80;80.72
78990;BME280;68390;52.130;21.218;2023-07-20T08:06:21;99895.75;;;16.80;81.05
78990;BME280;68390;52.130;21.218;2023-07-20T08:08:47;99898.97;;;16.77;81.00
78990;BME280;68390;52.130;21.218;2023-07-20T08:11:12;99900.69;;;16.78;81.24
78990;BME280;68390;52.130;21.218;2023-07-20T08:13:38;99906.22;;;16.78;82.29
78990;BME280;68390;52.130;21.218;2023-07-20T08:16:03;99913.28;;;16.74;81.79
78990;BME280;68390;52.130;21.218;2023-07-20T08:18:29;99901.75;;;16.77;82.42
78990;BME280;68390;52.130;21.218;2023-07-20T08:20:54;99911.34;;;16.81;81.42
78990;BME280;68390;52.130;21.218;2023-07-20T08:23:20;99924.50;;;16.86;81.35
78990;BME280;68390;52.130;21.218;2023-07-20T08:25:45;99920.66;;;16.87;82.04
78990;BME280;68390;52.130;21.218;2023-07-20T08:28:14;99924.28;;;16.87;83.67
78990;BME280;68390;52.130;21.218;2023-07-20T08:30:48;99930.91;;;16.86;82.79
78990;BME280;68390;52.130;21.218;2023-07-20T08:33:15;99931.56;;;16.82;82.13
78990;BME280;68390;52.130;21.218;2023-07-20T08:35:42;99938.44;;;16.73;82.70
78990;BME280;68390;52.130;21.218;2023-07-20T08:38:08;99935.09;;;16.64;83.88
78990;BME280;68390;52.130;21.218;2023-07-20T08:40:38;99936.34;;;16.68;84.60
78990;BME280;68390;52.130;21.218;2023-07-20T08:43:04;99943.59;;;16.69;84.68
78990;BME280;68390;52.130;21.218;2023-07-20T08:45:33;99940.19;;;16.67;84.33
78990;BME280;68390;52.130;21.218;2023-07-20T08:48:00;99941.25;;;16.66;85.01
78990;BME280;68390;52.130;21.218;2023-07-20T08:50:26;99944.47;;;16.63;84.42
78990;BME280;68390;52.130;21.218;2023-07-20T08:52:55;99945.34;;;16.57;83.95
78990;BME280;68390;52.130;21.218;2023-07-20T08:55:22;99947.69;;;16.53;83.92
78990;BME280;68390;52.130;21.218;2023-07-20T08:57:50;99953.06;;;16.42;84.65
78990;BME280;68390;52.130;21.218;2023-07-20T09:00:16;99940.31;;;16.34;83.21
78990;BME280;68390;52.130;21.218;2023-07-20T09:02:45;99955.66;;;16.37;85.57
78990;BME280;68390;52.130;21.218;2023-07-20T09:05:10;99951.34;;;16.41;84.59
78990;BME280;68390;52.130;21.218;2023-07-20T09:07:36;99957.31;;;16.44;84.79
78990;BME280;68390;52.130;21.218;2023-07-20T09:10:02;99961.59;;;16.47;86.36
78990;BME280;68390;52.130;21.218;2023-07-20T09:12:34;99954.72;;;16.56;85.90
78990;BME280;68390;52.130;21.218;2023-07-20T09:15:00;99972.41;;;16.55;84.27
78990;BME280;68390;52.130;21.218;2023-07-20T09:17:26;99969.22;;;16.58;84.74
78990;BME280;68390;52.130;21.218;2023-07-20T09:19:51;99963.22;;;16.61;85.03
78990;BME280;68390;52.130;21.218;2023-07-20T09:22:17;99966.22;;;16.66;83.39
78990;BME280;68390;52.130;21.218;2023-07-20T09:24:43;99972.56;;;16.73;82.92
78990;BME280;68390;52.130;21.218;2023-07-20T09:27:09;99977.25;;;16.79;82.25
78990;BME280;68390;52.130;21.218;2023-07-20T09:29:47;99970.38;;;16.88;82.89
78990;BME280;68390;52.130;21.218;2023-07-20T09:32:13;99979.28;;;16.97;82.34
78990;BME280;68390;52.130;21.218;2023-07-20T09:34:43;99977.09;;;17.06;81.99
78990;BME280;68390;52.130;21.218;2023-07-20T09:37:08;99978.16;;;17.05;81.32
78990;BME280;68390;52.130;21.218;2023-07-20T09:39:43;99966.81;;;17.13;80.21
78990;BME280;68390;52.130;21.218;2023-07-20T09:42:11;99975.53;;;17.16;82.00
78990;BME280;68390;52.130;21.218;2023-07-20T09:44:38;99982.56;;;17.19;81.40
78990;BME280;68390;52.130;21.218;2023-07-20T09:47:05;99979.50;;;17.27;82.38
78990;BME280;68390;52.130;21.218;2023-07-20T09:49:31;99972.22;;;17.33;80.57
78990;BME280;68390;52.130;21.218;2023-07-20T09:51:58;99981.50;;;17.45;80.67
78990;BME280;68390;52.130;21.218;2023-07-20T09:54:27;99978.00;;;17.63;77.36
78990;BME280;68390;52.130;21.218;2023-07-20T09:56:53;99986.38;;;17.81;76.16
78990;BME280;68390;52.130;21.218;2023-07-20T09:59:22;99986.31;;;17.87;74.15
78990;BME280;68390;52.130;21.218;2023-07-20T10:01:49;99982.25;;;18.08;74.42
78990;BME280;68390;52.130;21.218;2023-07-20T10:04:16;99979.50;;;18.26;75.53
78990;BME280;68390;52.130;21.218;2023-07-20T10:06:42;99971.94;;;18.52;74.27
78990;BME280;68390;52.130;21.218;2023-07-20T10:09:10;99976.41;;;18.71;69.46
78990;BME280;68390;52.130;21.218;2023-07-20T10:11:40;99969.16;;;18.70;70.02
78990;BME280;68390;52.130;21.218;2023-07-20T10:14:08;99977.97;;;18.85;72.04
78990;BME280;68390;52.130;21.218;2023-07-20T10:16:39;99980.28;;;18.88;69.68
78990;BME280;68390;52.130;21.218;2023-07-20T10:19:34;99974.88;;;18.75;69.92
78990;BME280;68390;52.130;21.218;2023-07-20T10:22:05;99981.47;;;18.62;71.63
78990;BME280;68390;52.130;21.218;2023-07-20T10:24:33;99971.63;;;18.60;69.53
78990;BME280;68390;52.130;21.218;2023-07-20T10:27:00;99979.97;;;18.60;70.56
78990;BME280;68390;52.130;21.218;2023-07-20T10:29:26;99970.97;;;18.64;71.71
78990;BME280;68390;52.130;21.218;2023-07-20T10:31:54;99974.13;;;18.68;70.13
78990;BME280;68390;52.130;21.218;2023-07-20T10:34:20;99965.69;;;18.75;70.91
78990;BME280;68390;52.130;21.218;2023-07-20T10:36:46;99966.38;;;18.88;71.04
78990;BME280;68390;52.130;21.218;2023-07-20T10:39:25;99970.03;;;19.00;69.21
78990;BME280;68390;52.130;21.218;2023-07-20T10:42:03;99966.66;;;18.98;69.13
78990;BME280;68390;52.130;21.218;2023-07-20T10:44:31;99969.94;;;19.07;70.91
78990;BME280;68390;52.130;21.218;2023-07-20T10:47:01;99968.72;;;19.03;71.00
78990;BME280;68390;52.130;21.218;2023-07-20T10:49:28;99959.22;;;18.92;68.92
78990;BME280;68390;52.130;21.218;2023-07-20T10:51:58;99966.38;;;18.88;69.87
78990;BME280;68390;52.130;21.218;2023-07-20T10:56:55;99966.09;;;18.90;70.24
78990;BME280;68390;52.130;21.218;2023-07-20T11:01:49;99962.72;;;18.88;67.77
78990;BME280;68390;52.130;21.218;2023-07-20T11:04:15;99962.97;;;18.86;67.79
78990;BME280;68390;52.130;21.218;2023-07-20T11:06:54;99974.22;;;18.91;67.40
78990;BME280;68390;52.130;21.218;2023-07-20T11:09:22;99969.75;;;18.90;66.33
78990;BME280;68390;52.130;21.218;2023-07-20T11:11:50;99976.06;;;19.27;69.54
78990;BME280;68390;52.130;21.218;2023-07-20T11:14:24;99975.94;;;19.64;66.69
78990;BME280;68390;52.130;21.218;2023-07-20T11:16:51;99966.25;;;19.78;66.06
78990;BME280;68390;52.130;21.218;2023-07-20T11:19:19;99962.25;;;19.86;63.68
78990;BME280;68390;52.130;21.218;2023-07-20T11:21:46;99963.00;;;19.81;63.95
78990;BME280;68390;52.130;21.218;2023-07-20T11:24:12;99956.34;;;19.70;63.02
78990;BME280;68390;52.130;21.218;2023-07-20T11:26:47;99942.75;;;19.97;65.78
78990;BME280;68390;52.130;21.218;2023-07-20T11:29:17;99941.28;;;20.30;67.32
78990;BME280;68390;52.130;21.218;2023-07-20T11:31:45;99944.56;;;20.38;62.84
78990;BME280;68390;52.130;21.218;2023-07-20T11:34:12;99932.13;;;20.58;61.84
78990;BME280;68390;52.130;21.218;2023-07-20T11:36:44;99935.75;;;20.70;62.63
78990;BME280;68390;52.130;21.218;2023-07-20T11:39:12;99939.22;;;20.77;60.41
78990;BME280;68390;52.130;21.218;2023-07-20T11:41:38;99931.00;;;20.70;61.28
78990;BME280;68390;52.130;21.218;2023-07-20T11:44:05;99935.06;;;20.63;60.97
78990;BME280;68390;52.130;21.218;2023-07-20T11:46:31;99942.34;;;20.52;61.22
78990;BME280;68390;52.130;21.218;2023-07-20T11:48:58;99941.75;;;20.50;61.20
78990;BME280;68390;52.130;21.218;2023-07-20T11:51:30;99931.84;;;20.42;60.98
78990;BME280;68390;52.130;21.218;2023-07-20T11:53:57;99940.06;;;20.37;60.83
78990;BME280;68390;52.130;21.218;2023-07-20T11:56:24;99934.38;;;20.32;60.97
78990;BME280;68390;52.130;21.218;2023-07-20T11:58:50;99931.97;;;20.24;60.51
78990;BME280;68390;52.130;21.218;2023-07-20T12:01:17;99927.09;;;20.31;62.69
78990;BME280;68390;52.130;21.218;2023-07-20T12:03:43;99930.97;;;20.54;61.35
78990;BME280;68390;52.130;21.218;2023-07-20T12:06:09;99927.88;;;20.67;61.20
78990;BME280;68390;52.130;21.218;2023-07-20T12:08:38;99929.88;;;20.83;58.78
78990;BME280;68390;52.130;21.218;2023-07-20T12:11:04;99924.44;;;21.05;59.33
78990;BME280;68390;52.130;21.218;2023-07-20T12:13:43;99913.31;;;21.21;57.18
78990;BME280;68390;52.130;21.218;2023-07-20T12:16:16;99922.06;;;21.42;57.60
78990;BME280;68390;52.130;21.218;2023-07-20T12:18:44;99916.22;;;21.60;58.76
78990;BME280;68390;52.130;21.218;2023-07-20T12:21:11;99918.94;;;21.72;56.55
78990;BME280;68390;52.130;21.218;2023-07-20T12:23:40;99919.28;;;21.75;56.34
78990;BME280;68390;52.130;21.218;2023-07-20T12:26:09;99924.47;;;21.67;56.56
78990;BME280;68390;52.130;21.218;2023-07-20T12:28:42;99926.06;;;21.79;56.68
78990;BME280;68390;52.130;21.218;2023-07-20T12:31:10;99924.94;;;21.80;55.12
78990;BME280;68390;52.130;21.218;2023-07-20T12:33:38;99917.41;;;21.64;55.36
78990;BME280;68390;52.130;21.218;2023-07-20T12:36:04;99926.06;;;21.46;55.88
78990;BME280;68390;52.130;21.218;2023-07-20T12:38:30;99916.97;;;21.39;56.61
78990;BME280;68390;52.130;21.218;2023-07-20T12:41:00;99919.78;;;21.39;56.38
78990;BME280;68390;52.130;21.218;2023-07-20T12:43:25;99915.38;;;21.43;55.48
78990;BME280;68390;52.130;21.218;2023-07-20T12:45:51;99920.63;;;21.39;57.47
78990;BME280;68390;52.130;21.218;2023-07-20T12:48:17;99924.09;;;21.30;55.95
78990;BME280;68390;52.130;21.218;2023-07-20T12:50:42;99911.31;;;21.34;55.63
78990;BME280;68390;52.130;21.218;2023-07-20T12:53:07;99907.06;;;21.31;56.03
78990;BME280;68390;52.130;21.218;2023-07-20T12:55:33;99907.75;;;21.21;57.20
78990;BME280;68390;52.130;21.218;2023-07-20T12:57:58;99913.13;;;21.11;56.25
78990;BME280;68390;52.130;21.218;2023-07-20T13:00:24;99908.69;;;20.99;56.80